createdAt,value
2018-10-07T00:01:16.765Z,64.71
2018-10-07T00:03:45.314Z,65.07
2018-10-07T00:06:14.028Z,64.97
2018-10-07T00:08:42.508Z,65.45
2018-10-07T00:11:10.961Z,65.42
2018-10-07T00:13:39.646Z,65.69
2018-10-07T00:16:08.138Z,66.13
2018-10-07T00:18:36.648Z,66.02
2018-10-07T00:21:05.109Z,67.41
2018-10-07T00:23:33.617Z,66.75
2018-10-07T00:26:02.068Z,67.28
2018-10-07T00:28:30.473Z,67.06
2018-10-07T00:30:58.845Z,67.83
2018-10-07T00:33:27.249Z,67.95
2018-10-07T00:35:55.662Z,67.60
2018-10-07T00:38:24.061Z,67.83
2018-10-07T00:40:52.645Z,67.36
2018-10-07T00:43:20.993Z,67.80
2018-10-07T00:45:49.344Z,68.05
2018-10-07T00:48:17.699Z,68.02
2018-10-07T00:50:46.181Z,67.80
2018-10-07T00:53:14.557Z,68.12
2018-10-07T00:55:42.895Z,68.05
2018-10-07T00:58:11.349Z,68.09
2018-10-07T01:00:39.784Z,68.42
2018-10-07T01:03:08.145Z,68.17
2018-10-07T01:05:36.685Z,68.01
2018-10-07T01:08:04.972Z,67.25
2018-10-07T01:10:33.543Z,67.85
2018-10-07T01:13:01.959Z,67.94
2018-10-07T01:15:30.296Z,67.83
2018-10-07T01:17:58.675Z,68.36
2018-10-07T01:20:27.126Z,68.25
2018-10-07T01:22:56.228Z,68.32
2018-10-07T01:25:24.606Z,68.00
2018-10-07T01:27:52.994Z,67.69
2018-10-07T01:30:23.124Z,67.20
2018-10-07T01:32:52.977Z,67.22
2018-10-07T01:35:21.350Z,67.12
2018-10-07T01:37:49.878Z,67.34
2018-10-07T01:40:18.325Z,67.54
2018-10-07T01:42:46.743Z,66.60
2018-10-07T01:45:15.161Z,66.37
2018-10-07T01:47:43.511Z,66.39
2018-10-07T01:50:11.854Z,67.02
2018-10-07T01:52:40.269Z,66.94
2018-10-07T01:55:08.645Z,66.95
2018-10-07T01:57:37.034Z,66.77
2018-10-07T02:00:05.420Z,65.74
2018-10-07T02:02:33.918Z,66.70
2018-10-07T02:05:02.357Z,66.16
2018-10-07T02:07:30.735Z,66.12
2018-10-07T02:09:59.134Z,65.68
2018-10-07T02:15:27.774Z,66.13
2018-10-07T02:17:58.197Z,65.70
2018-10-07T02:21:08.736Z,65.66
2018-10-07T02:24:08.833Z,65.09
2018-10-07T02:26:48.171Z,65.93
2018-10-07T02:30:00.054Z,65.33
2018-10-07T02:32:45.877Z,65.06
2018-10-07T02:35:25.291Z,64.52
2018-10-07T02:38:15.053Z,65.68
2018-10-07T02:41:03.857Z,65.08
2018-10-07T02:44:06.795Z,64.74
2018-10-07T02:47:04.001Z,64.40
2018-10-07T02:49:49.649Z,63.60
2018-10-07T02:52:35.883Z,65.07
2018-10-07T02:58:01.075Z,64.73
2018-10-07T03:00:56.864Z,65.39
2018-10-07T03:06:28.734Z,65.14
2018-10-07T03:09:23.860Z,64.86
2018-10-07T03:12:08.056Z,65.24
2018-10-07T03:14:53.703Z,64.57
2018-10-07T03:17:40.316Z,65.33
2018-10-07T03:23:16.143Z,65.68
2018-10-07T03:26:02.632Z,65.25
2018-10-07T03:28:45.574Z,65.02
2018-10-07T03:34:44.428Z,64.71
2018-10-07T03:37:34.610Z,64.70
2018-10-07T03:40:23.519Z,64.94
2018-10-07T03:43:13.241Z,64.68
2018-10-07T03:46:00.163Z,64.78
2018-10-07T03:48:50.936Z,65.03
2018-10-07T03:54:38.530Z,65.59
2018-10-07T03:57:28.144Z,65.26
2018-10-07T04:03:21.229Z,64.54
2018-10-07T04:06:18.568Z,64.86
2018-10-07T04:09:05.357Z,64.71
2018-10-07T04:11:54.168Z,64.51
2018-10-07T04:14:52.357Z,63.81
2018-10-07T04:17:42.887Z,64.72
2018-10-07T04:20:35.178Z,64.98
2018-10-07T04:23:25.783Z,64.32
2018-10-07T04:26:16.788Z,64.59
2018-10-07T04:29:08.632Z,64.60
2018-10-07T04:32:05.765Z,64.10
2018-10-07T04:35:01.295Z,64.46
2018-10-07T04:37:57.344Z,64.38
2018-10-07T04:40:52.999Z,64.25
2018-10-07T04:43:56.085Z,64.47
2018-10-07T04:46:58.115Z,64.17
2018-10-07T04:49:56.979Z,64.26
2018-10-07T04:55:53.942Z,63.80
2018-10-07T04:58:52.170Z,63.91
2018-10-07T05:18:42.053Z,63.32
2018-10-07T05:21:14.203Z,63.20
2018-10-07T05:23:42.680Z,63.77
2018-10-07T05:26:11.385Z,63.78
2018-10-07T05:28:41.905Z,64.18
2018-10-07T05:33:54.356Z,64.37
2018-10-07T05:36:24.719Z,64.22
2018-10-07T05:38:58.231Z,63.88
2018-10-07T05:41:26.905Z,63.93
2018-10-07T05:43:55.544Z,63.99
2018-10-07T05:49:27.655Z,63.91
2018-10-07T05:52:05.583Z,64.27
2018-10-07T05:54:34.931Z,64.05
2018-10-07T05:57:25.319Z,63.92
2018-10-07T06:02:10.212Z,64.07
2018-10-07T06:04:45.264Z,64.01
2018-10-07T06:07:16.033Z,63.59
2018-10-07T06:09:49.750Z,63.69
2018-10-07T06:12:21.021Z,63.58
2018-10-07T06:42:56.097Z,62.87
2018-10-07T06:45:24.516Z,62.83
2018-10-07T06:47:58.887Z,62.49
2018-10-07T06:50:31.192Z,62.17
2018-10-07T06:53:02.166Z,61.45
2018-10-07T06:55:36.816Z,60.99
2018-10-07T06:58:10.777Z,61.08
2018-10-07T07:00:39.197Z,60.75
2018-10-07T07:03:07.764Z,59.80
2018-10-07T07:05:36.070Z,59.64
2018-10-07T07:08:10.965Z,59.67
2018-10-07T07:10:39.292Z,58.77
2018-10-07T07:15:44.143Z,58.08
2018-10-07T07:18:12.600Z,57.83
2018-10-07T07:20:41.144Z,56.90
2018-10-07T07:23:16.802Z,55.94
2018-10-07T07:25:53.374Z,55.59
2018-10-07T07:28:28.948Z,55.86
2018-10-07T07:31:08.090Z,55.95
2018-10-07T07:33:36.542Z,55.69
2018-10-07T07:36:19.004Z,55.03
2018-10-07T07:39:03.677Z,54.65
2018-10-07T08:05:37.520Z,51.77
2018-10-07T08:08:09.678Z,51.80
2018-10-07T08:10:48.963Z,50.39
2018-10-07T08:13:27.420Z,50.82
2018-10-07T08:19:01.298Z,51.17
2018-10-07T08:24:23.585Z,50.96
2018-10-07T08:27:02.801Z,50.87
2018-10-07T08:29:34.387Z,50.87
2018-10-07T08:32:02.952Z,51.19
2018-10-07T08:37:31.222Z,50.25
2018-10-07T08:40:15.220Z,50.77
2018-10-07T08:45:21.692Z,49.74
2018-10-07T08:47:58.415Z,49.93
2018-10-07T08:53:26.973Z,49.56
2018-10-07T08:58:42.449Z,48.72
2018-10-07T09:01:10.954Z,48.12
2018-10-07T09:03:52.008Z,48.54
2018-10-07T09:55:02.334Z,43.65
2018-10-07T09:57:36.722Z,42.39
2018-10-07T11:03:25.255Z,35.60
2018-10-07T11:06:22.295Z,34.73
2018-10-07T11:09:28.464Z,33.94
2018-10-07T11:12:17.615Z,34.67
2018-10-07T11:15:19.323Z,34.14
2018-10-07T11:27:10.273Z,32.41
2018-10-07T11:30:17.580Z,32.93
2018-10-07T11:36:33.316Z,32.89
2018-10-07T11:46:10.714Z,33.67
2018-10-07T12:01:28.638Z,33.38
2018-10-07T12:04:25.786Z,32.78
2018-10-07T13:45:06.889Z,39.00
2018-10-07T15:40:01.771Z,44.29
2018-10-07T15:42:34.203Z,44.27
2018-10-07T15:45:06.543Z,45.94
2018-10-07T15:47:42.502Z,44.93
2018-10-07T15:50:16.916Z,45.45
2018-10-07T15:52:51.744Z,45.82
2018-10-07T15:55:20.556Z,45.29
2018-10-07T15:57:49.340Z,45.30
2018-10-07T16:00:18.241Z,45.22
2018-10-07T16:02:46.999Z,45.66
2018-10-07T16:05:15.769Z,45.38
2018-10-07T16:07:44.387Z,45.68
2018-10-07T16:10:20.510Z,46.06
2018-10-07T16:13:00.290Z,45.78
2018-10-07T16:15:34.657Z,45.78
2018-10-07T16:18:14.083Z,45.82
2018-10-07T16:20:49.774Z,45.66
2018-10-07T16:23:21.281Z,46.24
2018-10-07T16:28:54.107Z,47.00
2018-10-07T16:31:23.141Z,47.18
2018-10-07T16:33:52.256Z,47.30
2018-10-07T16:36:27.970Z,46.66
2018-10-07T16:38:57.206Z,46.91
2018-10-07T16:41:26.239Z,47.08
2018-10-07T16:43:55.012Z,47.26
2018-10-07T16:46:31.678Z,47.17
2018-10-07T16:49:01.317Z,46.95
2018-10-07T16:51:36.442Z,46.99
2018-10-07T16:54:17.259Z,46.97
2018-10-07T16:56:52.516Z,47.46
2018-10-07T16:59:23.591Z,47.67
2018-10-07T17:01:55.822Z,47.45
2018-10-07T17:09:48.289Z,47.39
2018-10-07T17:12:17.031Z,47.23
2018-10-07T17:14:45.978Z,47.74
2018-10-07T17:17:14.829Z,47.64
2018-10-07T17:19:46.939Z,48.06
2018-10-07T17:22:15.682Z,48.05
2018-10-07T17:24:44.221Z,48.25
2018-10-07T17:29:53.873Z,48.92
2018-10-07T17:32:27.305Z,48.78
2018-10-07T17:34:56.137Z,48.73
2018-10-07T17:37:24.753Z,48.98
2018-10-07T17:39:53.338Z,49.12
2018-10-07T17:42:22.002Z,49.40
2018-10-07T17:44:50.625Z,49.52
2018-10-07T17:47:19.438Z,49.47
2018-10-07T17:49:48.100Z,49.50
2018-10-07T17:52:16.667Z,49.21
2018-10-07T17:54:48.077Z,49.46
2018-10-07T17:57:16.826Z,49.56
2018-10-07T17:59:45.416Z,50.11
2018-10-07T18:02:14.289Z,50.07
2018-10-07T18:04:43.074Z,50.12
2018-10-07T18:07:11.740Z,50.65
2018-10-07T18:09:40.528Z,50.73
2018-10-07T18:12:09.547Z,50.54
2018-10-07T18:14:38.240Z,50.07
2018-10-07T18:17:06.869Z,50.22
2018-10-07T18:19:35.703Z,50.83
2018-10-07T18:22:04.782Z,50.47
2018-10-07T18:24:33.995Z,50.50
2018-10-07T18:27:02.971Z,50.83
2018-10-07T18:29:31.993Z,50.71
2018-10-07T18:32:00.792Z,50.67
2018-10-07T18:34:29.868Z,50.62
2018-10-07T18:36:58.704Z,50.92
2018-10-07T18:39:27.517Z,50.82
2018-10-07T18:41:56.406Z,50.86
2018-10-07T18:44:25.375Z,51.05
2018-10-07T18:46:54.310Z,51.16
2018-10-07T18:49:23.410Z,51.16
2018-10-07T18:51:52.653Z,51.23
2018-10-07T18:57:30.187Z,51.11
2018-10-07T19:06:26.861Z,51.29
2018-10-07T19:08:56.051Z,51.66
2018-10-07T19:11:25.650Z,51.42
2018-10-07T19:13:55.256Z,51.17
2018-10-07T19:16:24.555Z,51.15
2018-10-07T19:18:53.968Z,50.83
2018-10-07T19:21:23.352Z,51.54
2018-10-07T19:23:52.615Z,51.54
2018-10-07T19:26:29.985Z,51.72
2018-10-07T19:29:11.579Z,51.89
2018-10-07T19:31:41.192Z,51.91
2018-10-07T19:47:09.117Z,52.20
2018-10-07T20:21:30.913Z,53.50
2018-10-07T20:24:00.764Z,53.15
2018-10-07T20:26:30.552Z,53.39
2018-10-07T20:29:00.383Z,53.71
2018-10-07T20:31:31.033Z,54.12
2018-10-07T20:34:00.345Z,54.21
2018-10-07T20:36:29.899Z,54.81
2018-10-07T20:39:05.614Z,54.55
2018-10-07T20:41:35.004Z,54.77
2018-10-07T20:44:04.151Z,54.80
2018-10-07T20:46:33.323Z,54.57
2018-10-07T20:52:20.186Z,55.17
2018-10-07T20:54:49.399Z,55.23
2018-10-07T20:57:18.268Z,54.89
2018-10-07T20:59:55.355Z,55.19
2018-10-07T21:02:24.408Z,55.43
2018-10-07T21:04:53.083Z,55.76
2018-10-07T21:07:22.247Z,55.66
2018-10-07T21:09:52.743Z,55.96
2018-10-07T21:12:22.140Z,55.69
2018-10-07T21:14:51.001Z,55.87
2018-10-07T21:17:25.997Z,56.04
2018-10-07T21:19:58.517Z,56.51
2018-10-07T21:22:27.963Z,56.67
2018-10-07T21:25:01.576Z,56.46
2018-10-07T21:27:30.652Z,56.33
2018-10-07T21:29:59.264Z,57.17
2018-10-07T21:32:28.214Z,56.96
2018-10-07T21:34:56.862Z,57.01
2018-10-07T21:37:25.827Z,57.54
2018-10-07T21:39:54.731Z,57.35
2018-10-07T21:42:23.468Z,57.06
2018-10-07T21:44:59.239Z,57.15
2018-10-07T21:47:27.914Z,57.86
2018-10-07T21:49:56.433Z,57.69
2018-10-07T21:52:25.003Z,57.68
2018-10-07T21:54:59.906Z,57.79
2018-10-07T21:57:34.872Z,57.65
2018-10-07T22:00:03.612Z,57.90
2018-10-07T22:02:32.336Z,58.21
2018-10-07T22:05:00.835Z,58.50
2018-10-07T22:07:29.252Z,58.40
2018-10-07T22:09:57.722Z,58.24
2018-10-07T22:12:26.093Z,57.80
2018-10-07T22:14:54.505Z,58.16
2018-10-07T22:17:22.963Z,58.59
2018-10-07T22:19:51.705Z,59.21
2018-10-07T22:22:20.055Z,59.50
2018-10-07T22:24:54.897Z,59.72
2018-10-07T22:27:23.531Z,59.82
2018-10-07T22:29:51.980Z,59.91
2018-10-07T22:32:20.650Z,60.02
2018-10-07T22:34:49.024Z,60.48
2018-10-07T22:39:56.616Z,60.33
2018-10-07T22:42:25.001Z,60.76
2018-10-07T22:47:26.788Z,60.52
2018-10-07T22:49:55.276Z,60.90
2018-10-07T22:52:24.019Z,61.15
2018-10-07T22:54:52.543Z,61.47
2018-10-07T22:57:20.891Z,61.80
2018-10-07T22:59:49.289Z,61.87
2018-10-07T23:02:17.772Z,61.89
2018-10-07T23:07:25.722Z,62.50
2018-10-07T23:09:54.140Z,61.60
2018-10-07T23:12:25.572Z,61.88
2018-10-07T23:14:54.287Z,61.94
2018-10-07T23:19:56.977Z,62.73
2018-10-07T23:22:25.317Z,62.75
2018-10-07T23:25:02.070Z,63.02
2018-10-07T23:27:30.905Z,63.39
2018-10-07T23:29:59.365Z,63.87
2018-10-07T23:32:28.560Z,63.60
2018-10-07T23:35:09.495Z,64.40
2018-10-07T23:37:43.793Z,64.51
2018-10-07T23:40:12.206Z,64.07
2018-10-07T23:42:41.753Z,64.62
2018-10-07T23:45:10.207Z,64.83
2018-10-07T23:47:40.600Z,65.23
2018-10-07T23:50:08.960Z,65.24
2018-10-07T23:52:37.276Z,64.80
2018-10-07T23:55:05.644Z,65.06
2018-10-07T23:57:39.433Z,65.00
